sensor_id;sensor_type;location;lat;lon;timestamp;P1;durP1;ratioP1;P2;durP2;ratioP2
27412;SDS011;14871;52.702;5.230;2022-08-20T00:00:04;10.43;;;3.65;;
27412;SDS011;14871;52.702;5.230;2022-08-20T00:02:42;9.07;;;3.20;;
27412;SDS011;14871;52.702;5.230;2022-08-20T00:05:12;9.88;;;3.80;;
27412;SDS011;14871;52.702;5.230;2022-08-20T00:07:39;8.57;;;3.03;;
27412;SDS011;14871;52.702;5.230;2022-08-20T00:10:06;11.85;;;4.30;;
27412;SDS011;14871;52.702;5.230;2022-08-20T00:12:33;8.68;;;3.67;;
27412;SDS011;14871;52.702;5.230;2022-08-20T00:14:59;8.50;;;3.95;;
27412;SDS011;14871;52.702;5.230;2022-08-20T00:17:25;11.85;;;4.22;;
27412;SDS011;14871;52.702;5.230;2022-08-20T00:19:52;8.85;;;3.90;;
27412;SDS011;14871;52.702;5.230;2022-08-20T00:22:17;5.93;;;3.55;;
27412;SDS011;14871;52.702;5.230;2022-08-20T00:24:43;12.05;;;3.72;;
27412;SDS011;14871;52.702;5.230;2022-08-20T00:27:09;11.15;;;4.25;;
27412;SDS011;14871;52.702;5.230;2022-08-20T00:29:34;11.55;;;3.90;;
27412;SDS011;14871;52.702;5.230;2022-08-20T00:32:00;8.98;;;3.17;;
27412;SDS011;14871;52.702;5.230;2022-08-20T00:34:26;10.30;;;3.20;;
27412;SDS011;14871;52.702;5.230;2022-08-20T00:36:52;12.15;;;3.78;;
27412;SDS011;14871;52.702;5.230;2022-08-20T00:39:17;9.88;;;3.38;;
27412;SDS011;14871;52.702;5.230;2022-08-20T00:41:43;13.50;;;3.35;;
27412;SDS011;14871;52.702;5.230;2022-08-20T00:44:10;10.00;;;3.20;;
27412;SDS011;14871;52.702;5.230;2022-08-20T00:46:39;8.45;;;2.72;;
27412;SDS011;14871;52.702;5.230;2022-08-20T00:49:16;10.45;;;2.55;;
27412;SDS011;14871;52.702;5.230;2022-08-20T00:52:17;10.02;;;2.53;;
27412;SDS011;14871;52.702;5.230;2022-08-20T00:54:52;7.32;;;2.10;;
27412;SDS011;14871;52.702;5.230;2022-08-20T00:59:47;11.82;;;2.50;;
27412;SDS011;14871;52.702;5.230;2022-08-20T01:02:15;10.88;;;2.55;;
27412;SDS011;14871;52.702;5.230;2022-08-20T01:04:42;8.30;;;2.40;;
27412;SDS011;14871;52.702;5.230;2022-08-20T01:07:15;10.65;;;2.40;;
27412;SDS011;14871;52.702;5.230;2022-08-20T01:09:44;13.75;;;2.65;;
27412;SDS011;14871;52.702;5.230;2022-08-20T01:12:10;9.40;;;2.53;;
27412;SDS011;14871;52.702;5.230;2022-08-20T01:14:38;9.52;;;2.20;;
27412;SDS011;14871;52.702;5.230;2022-08-20T01:17:13;10.32;;;2.20;;
27412;SDS011;14871;52.702;5.230;2022-08-20T01:20:05;10.50;;;2.90;;
27412;SDS011;14871;52.702;5.230;2022-08-20T01:22:54;7.35;;;2.00;;
27412;SDS011;14871;52.702;5.230;2022-08-20T01:26:02;9.75;;;2.15;;
27412;SDS011;14871;52.702;5.230;2022-08-20T01:28:38;8.38;;;3.15;;
27412;SDS011;14871;52.702;5.230;2022-08-20T01:31:18;8.43;;;2.72;;
27412;SDS011;14871;52.702;5.230;2022-08-20T01:33:45;8.82;;;2.30;;
27412;SDS011;14871;52.702;5.230;2022-08-20T01:36:12;11.27;;;2.60;;
27412;SDS011;14871;52.702;5.230;2022-08-20T01:38:40;10.65;;;2.80;;
27412;SDS011;14871;52.702;5.230;2022-08-20T01:41:09;12.07;;;2.63;;
27412;SDS011;14871;52.702;5.230;2022-08-20T01:43:44;8.52;;;2.55;;
27412;SDS011;14871;52.702;5.230;2022-08-20T01:46:11;9.85;;;2.58;;
27412;SDS011;14871;52.702;5.230;2022-08-20T01:48:37;7.95;;;2.50;;
27412;SDS011;14871;52.702;5.230;2022-08-20T01:51:15;7.13;;;2.15;;
27412;SDS011;14871;52.702;5.230;2022-08-20T01:53:45;8.02;;;2.72;;
27412;SDS011;14871;52.702;5.230;2022-08-20T01:56:13;10.45;;;2.65;;
27412;SDS011;14871;52.702;5.230;2022-08-20T01:58:43;8.27;;;2.25;;
27412;SDS011;14871;52.702;5.230;2022-08-20T02:01:24;9.23;;;2.83;;
27412;SDS011;14871;52.702;5.230;2022-08-20T02:03:53;11.55;;;3.20;;
27412;SDS011;14871;52.702;5.230;2022-08-20T02:06:20;11.48;;;2.50;;
27412;SDS011;14871;52.702;5.230;2022-08-20T02:08:49;9.55;;;2.50;;
27412;SDS011;14871;52.702;5.230;2022-08-20T02:11:23;8.60;;;3.20;;
27412;SDS011;14871;52.702;5.230;2022-08-20T02:13:50;11.40;;;3.25;;
27412;SDS011;14871;52.702;5.230;2022-08-20T02:16:21;6.97;;;2.60;;
27412;SDS011;14871;52.702;5.230;2022-08-20T02:18:50;9.85;;;2.67;;
27412;SDS011;14871;52.702;5.230;2022-08-20T02:21:21;11.20;;;2.90;;
27412;SDS011;14871;52.702;5.230;2022-08-20T02:23:48;8.70;;;2.58;;
27412;SDS011;14871;52.702;5.230;2022-08-20T02:26:13;9.90;;;2.75;;
27412;SDS011;14871;52.702;5.230;2022-08-20T02:28:43;10.18;;;3.17;;
27412;SDS011;14871;52.702;5.230;2022-08-20T02:31:19;11.98;;;2.95;;
27412;SDS011;14871;52.702;5.230;2022-08-20T02:33:46;14.60;;;2.78;;
27412;SDS011;14871;52.702;5.230;2022-08-20T02:36:13;7.20;;;2.80;;
27412;SDS011;14871;52.702;5.230;2022-08-20T02:38:42;11.05;;;3.53;;
27412;SDS011;14871;52.702;5.230;2022-08-20T02:41:08;9.52;;;3.17;;
27412;SDS011;14871;52.702;5.230;2022-08-20T02:43:34;11.32;;;2.70;;
27412;SDS011;14871;52.702;5.230;2022-08-20T02:46:01;11.05;;;3.35;;
27412;SDS011;14871;52.702;5.230;2022-08-20T02:48:28;10.63;;;2.88;;
27412;SDS011;14871;52.702;5.230;2022-08-20T02:50:56;13.95;;;3.53;;
27412;SDS011;14871;52.702;5.230;2022-08-20T02:53:26;12.15;;;2.85;;
27412;SDS011;14871;52.702;5.230;2022-08-20T02:55:53;12.07;;;3.22;;
27412;SDS011;14871;52.702;5.230;2022-08-20T02:58:19;11.80;;;2.83;;
27412;SDS011;14871;52.702;5.230;2022-08-20T03:00:45;13.35;;;3.05;;
27412;SDS011;14871;52.702;5.230;2022-08-20T03:03:11;14.10;;;3.55;;
27412;SDS011;14871;52.702;5.230;2022-08-20T03:05:39;9.93;;;2.88;;
27412;SDS011;14871;52.702;5.230;2022-08-20T03:08:07;11.02;;;3.05;;
27412;SDS011;14871;52.702;5.230;2022-08-20T03:10:35;8.10;;;3.28;;
27412;SDS011;14871;52.702;5.230;2022-08-20T03:13:02;8.60;;;3.20;;
27412;SDS011;14871;52.702;5.230;2022-08-20T03:15:29;10.50;;;2.97;;
27412;SDS011;14871;52.702;5.230;2022-08-20T03:17:56;10.27;;;2.72;;
27412;SDS011;14871;52.702;5.230;2022-08-20T03:20:24;11.65;;;3.45;;
27412;SDS011;14871;52.702;5.230;2022-08-20T03:22:50;9.85;;;3.00;;
27412;SDS011;14871;52.702;5.230;2022-08-20T03:25:15;12.32;;;3.40;;
27412;SDS011;14871;52.702;5.230;2022-08-20T03:27:41;9.10;;;3.08;;
27412;SDS011;14871;52.702;5.230;2022-08-20T03:30:08;11.52;;;3.40;;
27412;SDS011;14871;52.702;5.230;2022-08-20T03:32:36;11.48;;;3.20;;
27412;SDS011;14871;52.702;5.230;2022-08-20T03:35:02;8.52;;;3.03;;
27412;SDS011;14871;52.702;5.230;2022-08-20T03:37:31;10.60;;;2.60;;
27412;SDS011;14871;52.702;5.230;2022-08-20T03:39:58;10.05;;;2.85;;
27412;SDS011;14871;52.702;5.230;2022-08-20T03:42:25;8.73;;;2.75;;
27412;SDS011;14871;52.702;5.230;2022-08-20T03:44:51;13.25;;;3.22;;
27412;SDS011;14871;52.702;5.230;2022-08-20T03:47:17;14.63;;;3.47;;
27412;SDS011;14871;52.702;5.230;2022-08-20T03:49:43;11.43;;;3.63;;
27412;SDS011;14871;52.702;5.230;2022-08-20T03:52:10;17.58;;;3.08;;
27412;SDS011;14871;52.702;5.230;2022-08-20T03:54:37;11.55;;;3.08;;
27412;SDS011;14871;52.702;5.230;2022-08-20T03:57:03;8.35;;;2.90;;
27412;SDS011;14871;52.702;5.230;2022-08-20T03:59:30;10.30;;;2.80;;
27412;SDS011;14871;52.702;5.230;2022-08-20T04:01:57;7.10;;;2.95;;
27412;SDS011;14871;52.702;5.230;2022-08-20T04:04:24;10.55;;;4.03;;
27412;SDS011;14871;52.702;5.230;2022-08-20T04:06:50;12.93;;;3.40;;
27412;SDS011;14871;52.702;5.230;2022-08-20T04:09:15;15.90;;;3.55;;
27412;SDS011;14871;52.702;5.230;2022-08-20T04:11:41;12.45;;;3.55;;
27412;SDS011;14871;52.702;5.230;2022-08-20T04:14:08;8.25;;;2.83;;
27412;SDS011;14871;52.702;5.230;2022-08-20T04:16:35;10.77;;;3.30;;
27412;SDS011;14871;52.702;5.230;2022-08-20T04:19:01;8.98;;;2.72;;
27412;SDS011;14871;52.702;5.230;2022-08-20T04:21:31;14.90;;;2.95;;
27412;SDS011;14871;52.702;5.230;2022-08-20T04:23:57;9.95;;;3.13;;
27412;SDS011;14871;52.702;5.230;2022-08-20T04:26:23;7.82;;;2.83;;
27412;SDS011;14871;52.702;5.230;2022-08-20T04:28:49;8.68;;;2.72;;
27412;SDS011;14871;52.702;5.230;2022-08-20T04:31:16;11.63;;;3.15;;
27412;SDS011;14871;52.702;5.230;2022-08-20T04:33:42;10.25;;;2.60;;
27412;SDS011;14871;52.702;5.230;2022-08-20T04:36:08;9.82;;;3.33;;
27412;SDS011;14871;52.702;5.230;2022-08-20T04:38:34;7.45;;;2.63;;
27412;SDS011;14871;52.702;5.230;2022-08-20T04:41:00;12.93;;;2.33;;
27412;SDS011;14871;52.702;5.230;2022-08-20T04:43:30;10.07;;;2.60;;
27412;SDS011;14871;52.702;5.230;2022-08-20T04:48:29;14.15;;;3.33;;
27412;SDS011;14871;52.702;5.230;2022-08-20T04:50:56;14.02;;;2.80;;
27412;SDS011;14871;52.702;5.230;2022-08-20T04:53:23;8.85;;;3.03;;
27412;SDS011;14871;52.702;5.230;2022-08-20T04:55:51;7.57;;;2.33;;
27412;SDS011;14871;52.702;5.230;2022-08-20T04:58:24;9.48;;;2.72;;
27412;SDS011;14871;52.702;5.230;2022-08-20T05:00:55;10.32;;;2.38;;
27412;SDS011;14871;52.702;5.230;2022-08-20T05:03:22;8.32;;;3.17;;
27412;SDS011;14871;52.702;5.230;2022-08-20T05:05:48;7.80;;;2.53;;
27412;SDS011;14871;52.702;5.230;2022-08-20T05:08:15;11.63;;;2.35;;
27412;SDS011;14871;52.702;5.230;2022-08-20T05:10:42;11.60;;;2.22;;
27412;SDS011;14871;52.702;5.230;2022-08-20T05:13:09;10.07;;;2.38;;
27412;SDS011;14871;52.702;5.230;2022-08-20T05:15:35;12.18;;;2.55;;
27412;SDS011;14871;52.702;5.230;2022-08-20T05:18:03;13.80;;;3.70;;
27412;SDS011;14871;52.702;5.230;2022-08-20T05:20:30;10.13;;;3.00;;
27412;SDS011;14871;52.702;5.230;2022-08-20T05:22:59;12.57;;;3.05;;
27412;SDS011;14871;52.702;5.230;2022-08-20T05:25:26;5.55;;;2.40;;
27412;SDS011;14871;52.702;5.230;2022-08-20T05:28:06;10.38;;;2.78;;
27412;SDS011;14871;52.702;5.230;2022-08-20T05:30:33;10.27;;;2.28;;
27412;SDS011;14871;52.702;5.230;2022-08-20T05:33:01;13.00;;;2.95;;
27412;SDS011;14871;52.702;5.230;2022-08-20T05:35:29;8.05;;;2.75;;
27412;SDS011;14871;52.702;5.230;2022-08-20T05:37:58;9.07;;;2.10;;
27412;SDS011;14871;52.702;5.230;2022-08-20T05:40:25;11.50;;;3.10;;
27412;SDS011;14871;52.702;5.230;2022-08-20T05:42:52;9.20;;;2.60;;
27412;SDS011;14871;52.702;5.230;2022-08-20T05:45:19;9.07;;;2.78;;
27412;SDS011;14871;52.702;5.230;2022-08-20T05:47:45;11.50;;;2.60;;
27412;SDS011;14871;52.702;5.230;2022-08-20T05:50:15;10.93;;;2.38;;
27412;SDS011;14871;52.702;5.230;2022-08-20T05:52:42;10.38;;;2.40;;
27412;SDS011;14871;52.702;5.230;2022-08-20T05:55:10;13.05;;;2.38;;
27412;SDS011;14871;52.702;5.230;2022-08-20T05:57:39;7.30;;;2.38;;
27412;SDS011;14871;52.702;5.230;2022-08-20T06:00:06;14.18;;;2.78;;
27412;SDS011;14871;52.702;5.230;2022-08-20T06:02:34;13.52;;;2.80;;
27412;SDS011;14871;52.702;5.230;2022-08-20T06:05:18;10.73;;;2.42;;
27412;SDS011;14871;52.702;5.230;2022-08-20T06:07:44;12.50;;;2.58;;
27412;SDS011;14871;52.702;5.230;2022-08-20T06:10:10;9.48;;;2.53;;
27412;SDS011;14871;52.702;5.230;2022-08-20T06:12:36;9.85;;;2.00;;
27412;SDS011;14871;52.702;5.230;2022-08-20T06:15:03;8.98;;;2.15;;
27412;SDS011;14871;52.702;5.230;2022-08-20T06:17:29;7.45;;;2.40;;
27412;SDS011;14871;52.702;5.230;2022-08-20T06:19:58;11.75;;;2.55;;
27412;SDS011;14871;52.702;5.230;2022-08-20T06:22:28;9.25;;;2.05;;
27412;SDS011;14871;52.702;5.230;2022-08-20T06:24:53;12.88;;;2.67;;
27412;SDS011;14871;52.702;5.230;2022-08-20T06:27:20;11.38;;;2.25;;
27412;SDS011;14871;52.702;5.230;2022-08-20T06:29:46;10.82;;;2.80;;
27412;SDS011;14871;52.702;5.230;2022-08-20T06:32:12;11.60;;;2.78;;
27412;SDS011;14871;52.702;5.230;2022-08-20T06:34:38;11.68;;;2.80;;
27412;SDS011;14871;52.702;5.230;2022-08-20T06:37:12;11.30;;;2.35;;
27412;SDS011;14871;52.702;5.230;2022-08-20T06:39:47;11.25;;;2.70;;
27412;SDS011;14871;52.702;5.230;2022-08-20T06:42:14;10.95;;;2.58;;
27412;SDS011;14871;52.702;5.230;2022-08-20T06:44:40;10.38;;;2.40;;
27412;SDS011;14871;52.702;5.230;2022-08-20T06:47:06;10.10;;;2.63;;
27412;SDS011;14871;52.702;5.230;2022-08-20T06:49:35;9.70;;;2.35;;
27412;SDS011;14871;52.702;5.230;2022-08-20T06:52:02;15.38;;;3.08;;
27412;SDS011;14871;52.702;5.230;2022-08-20T06:54:28;13.45;;;2.20;;
27412;SDS011;14871;52.702;5.230;2022-08-20T06:56:54;12.93;;;3.00;;
27412;SDS011;14871;52.702;5.230;2022-08-20T06:59:20;11.05;;;2.58;;
27412;SDS011;14871;52.702;5.230;2022-08-20T07:01:46;8.95;;;2.70;;
27412;SDS011;14871;52.702;5.230;2022-08-20T07:04:13;11.93;;;2.33;;
27412;SDS011;14871;52.702;5.230;2022-08-20T07:06:40;10.43;;;2.67;;
27412;SDS011;14871;52.702;5.230;2022-08-20T07:09:06;8.48;;;2.20;;
27412;SDS011;14871;52.702;5.230;2022-08-20T07:11:32;7.95;;;2.45;;
27412;SDS011;14871;52.702;5.230;2022-08-20T07:13:59;8.57;;;1.90;;
27412;SDS011;14871;52.702;5.230;2022-08-20T07:16:27;10.50;;;2.17;;
27412;SDS011;14871;52.702;5.230;2022-08-20T07:18:52;10.50;;;2.03;;
27412;SDS011;14871;52.702;5.230;2022-08-20T07:21:18;9.68;;;2.13;;
27412;SDS011;14871;52.702;5.230;2022-08-20T07:23:44;12.85;;;2.20;;
27412;SDS011;14871;52.702;5.230;2022-08-20T07:26:10;9.27;;;2.30;;
27412;SDS011;14871;52.702;5.230;2022-08-20T07:28:37;6.10;;;1.70;;
27412;SDS011;14871;52.702;5.230;2022-08-20T07:31:02;8.57;;;2.20;;
27412;SDS011;14871;52.702;5.230;2022-08-20T07:33:46;7.82;;;1.98;;
27412;SDS011;14871;52.702;5.230;2022-08-20T07:36:12;8.30;;;2.30;;
27412;SDS011;14871;52.702;5.230;2022-08-20T07:38:38;8.88;;;2.17;;
27412;SDS011;14871;52.702;5.230;2022-08-20T07:41:05;8.20;;;1.77;;
27412;SDS011;14871;52.702;5.230;2022-08-20T07:43:32;8.73;;;1.40;;
27412;SDS011;14871;52.702;5.230;2022-08-20T07:45:59;9.73;;;1.85;;
27412;SDS011;14871;52.702;5.230;2022-08-20T07:48:27;6.20;;;1.77;;
27412;SDS011;14871;52.702;5.230;2022-08-20T07:50:55;11.25;;;1.73;;
27412;SDS011;14871;52.702;5.230;2022-08-20T07:53:21;5.70;;;1.45;;
27412;SDS011;14871;52.702;5.230;2022-08-20T07:55:47;6.78;;;1.80;;
27412;SDS011;14871;52.702;5.230;2022-08-20T07:58:14;8.88;;;2.15;;
27412;SDS011;14871;52.702;5.230;2022-08-20T08:00:43;12.38;;;2.28;;
27412;SDS011;14871;52.702;5.230;2022-08-20T08:03:09;8.18;;;1.80;;
27412;SDS011;14871;52.702;5.230;2022-08-20T08:05:36;11.00;;;1.50;;
27412;SDS011;14871;52.702;5.230;2022-08-20T08:08:07;9.00;;;1.88;;
27412;SDS011;14871;52.702;5.230;2022-08-20T08:10:34;5.22;;;1.42;;
27412;SDS011;14871;52.702;5.230;2022-08-20T08:13:02;9.60;;;2.13;;
27412;SDS011;14871;52.702;5.230;2022-08-20T08:15:32;10.80;;;1.60;;
27412;SDS011;14871;52.702;5.230;2022-08-20T08:18:05;7.68;;;1.95;;
27412;SDS011;14871;52.702;5.230;2022-08-20T08:20:36;14.35;;;3.15;;
27412;SDS011;14871;52.702;5.230;2022-08-20T08:23:06;10.88;;;2.42;;
27412;SDS011;14871;52.702;5.230;2022-08-20T08:25:36;7.93;;;1.95;;
27412;SDS011;14871;52.702;5.230;2022-08-20T08:28:03;7.03;;;1.75;;
27412;SDS011;14871;52.702;5.230;2022-08-20T08:30:29;7.05;;;1.92;;
27412;SDS011;14871;52.702;5.230;2022-08-20T08:32:55;5.75;;;1.88;;
27412;SDS011;14871;52.702;5.230;2022-08-20T08:35:40;6.70;;;1.40;;
27412;SDS011;14871;52.702;5.230;2022-08-20T08:38:10;6.18;;;1.38;;
27412;SDS011;14871;52.702;5.230;2022-08-20T08:40:36;9.85;;;1.73;;
27412;SDS011;14871;52.702;5.230;2022-08-20T08:43:01;6.93;;;1.60;;
27412;SDS011;14871;52.702;5.230;2022-08-20T08:45:37;7.85;;;1.70;;
27412;SDS011;14871;52.702;5.230;2022-08-20T08:48:08;10.00;;;2.08;;
27412;SDS011;14871;52.702;5.230;2022-08-20T08:50:35;9.88;;;1.60;;
27412;SDS011;14871;52.702;5.230;2022-08-20T08:53:02;6.93;;;1.70;;
27412;SDS011;14871;52.702;5.230;2022-08-20T08:55:29;8.00;;;1.50;;
27412;SDS011;14871;52.702;5.230;2022-08-20T08:57:57;6.43;;;1.52;;
27412;SDS011;14871;52.702;5.230;2022-08-20T09:00:25;7.25;;;1.30;;
27412;SDS011;14871;52.702;5.230;2022-08-20T09:05:22;6.20;;;1.98;;
27412;SDS011;14871;52.702;5.230;2022-08-20T09:07:51;8.07;;;2.42;;
27412;SDS011;14871;52.702;5.230;2022-08-20T09:10:18;7.88;;;1.73;;
27412;SDS011;14871;52.702;5.230;2022-08-20T09:12:44;8.48;;;1.75;;
27412;SDS011;14871;52.702;5.230;2022-08-20T09:15:10;7.45;;;1.85;;
27412;SDS011;14871;52.702;5.230;2022-08-20T09:17:36;5.60;;;1.45;;
27412;SDS011;14871;52.702;5.230;2022-08-20T09:20:02;7.53;;;1.52;;
27412;SDS011;14871;52.702;5.230;2022-08-20T09:22:28;13.30;;;2.15;;
27412;SDS011;14871;52.702;5.230;2022-08-20T09:24:55;7.72;;;1.30;;
27412;SDS011;14871;52.702;5.230;2022-08-20T09:27:20;8.95;;;1.70;;
27412;SDS011;14871;52.702;5.230;2022-08-20T09:29:46;8.23;;;1.75;;
27412;SDS011;14871;52.702;5.230;2022-08-20T09:32:14;8.40;;;1.75;;
27412;SDS011;14871;52.702;5.230;2022-08-20T09:34:44;6.03;;;1.50;;
27412;SDS011;14871;52.702;5.230;2022-08-20T09:37:11;8.75;;;1.80;;
27412;SDS011;14871;52.702;5.230;2022-08-20T09:39:37;6.70;;;2.13;;
27412;SDS011;14871;52.702;5.230;2022-08-20T09:42:10;7.13;;;1.73;;
27412;SDS011;14871;52.702;5.230;2022-08-20T09:44:38;6.72;;;1.75;;
27412;SDS011;14871;52.702;5.230;2022-08-20T09:47:04;10.50;;;1.92;;
27412;SDS011;14871;52.702;5.230;2022-08-20T09:49:30;10.20;;;1.90;;
27412;SDS011;14871;52.702;5.230;2022-08-20T09:51:56;7.60;;;1.92;;
27412;SDS011;14871;52.702;5.230;2022-08-20T09:54:25;8.27;;;1.92;;
27412;SDS011;14871;52.702;5.230;2022-08-20T09:56:54;8.88;;;2.00;;
27412;SDS011;14871;52.702;5.230;2022-08-20T09:59:29;8.30;;;1.55;;
27412;SDS011;14871;52.702;5.230;2022-08-20T10:01:56;7.03;;;2.17;;
27412;SDS011;14871;52.702;5.230;2022-08-20T10:04:22;6.63;;;1.60;;
27412;SDS011;14871;52.702;5.230;2022-08-20T10:06:48;8.43;;;2.00;;
27412;SDS011;14871;52.702;5.230;2022-08-20T10:09:13;6.55;;;1.60;;
27412;SDS011;14871;52.702;5.230;2022-08-20T10:11:39;7.13;;;1.73;;
27412;SDS011;14871;52.702;5.230;2022-08-20T10:14:05;9.20;;;1.88;;
27412;SDS011;14871;52.702;5.230;2022-08-20T10:16:32;5.75;;;2.13;;
27412;SDS011;14871;52.702;5.230;2022-08-20T10:18:59;10.18;;;2.13;;
27412;SDS011;14871;52.702;5.230;2022-08-20T10:24:00;8.68;;;2.22;;
27412;SDS011;14871;52.702;5.230;2022-08-20T10:26:26;9.68;;;1.65;;
27412;SDS011;14871;52.702;5.230;2022-08-20T10:28:51;6.70;;;2.22;;
27412;SDS011;14871;52.702;5.230;2022-08-20T10:31:17;8.20;;;2.03;;
27412;SDS011;14871;52.702;5.230;2022-08-20T10:33:42;6.72;;;1.90;;
27412;SDS011;14871;52.702;5.230;2022-08-20T10:36:09;7.05;;;1.80;;
27412;SDS011;14871;52.702;5.230;2022-08-20T10:38:39;7.10;;;1.93;;
27412;SDS011;14871;52.702;5.230;2022-08-20T10:41:06;5.93;;;1.63;;
27412;SDS011;14871;52.702;5.230;2022-08-20T10:43:32;8.27;;;1.80;;
27412;SDS011;14871;52.702;5.230;2022-08-20T10:45:58;6.43;;;1.92;;
27412;SDS011;14871;52.702;5.230;2022-08-20T10:48:24;7.25;;;1.67;;
27412;SDS011;14871;52.702;5.230;2022-08-20T10:50:49;9.82;;;2.47;;
27412;SDS011;14871;52.702;5.230;2022-08-20T10:53:16;7.47;;;2.35;;
27412;SDS011;14871;52.702;5.230;2022-08-20T10:55:42;9.57;;;2.15;;
27412;SDS011;14871;52.702;5.230;2022-08-20T10:58:08;5.97;;;1.85;;
27412;SDS011;14871;52.702;5.230;2022-08-20T11:00:34;6.75;;;1.77;;
27412;SDS011;14871;52.702;5.230;2022-08-20T11:03:00;10.45;;;2.28;;
27412;SDS011;14871;52.702;5.230;2022-08-20T11:05:26;6.80;;;1.95;;
27412;SDS011;14871;52.702;5.230;2022-08-20T11:07:52;6.30;;;1.70;;
27412;SDS011;14871;52.702;5.230;2022-08-20T11:10:24;10.45;;;1.80;;
27412;SDS011;14871;52.702;5.230;2022-08-20T11:12:51;7.43;;;1.90;;
27412;SDS011;14871;52.702;5.230;2022-08-20T11:15:17;7.85;;;2.05;;
27412;SDS011;14871;52.702;5.230;2022-08-20T11:17:43;7.35;;;1.90;;
27412;SDS011;14871;52.702;5.230;2022-08-20T11:20:10;5.90;;;1.90;;
27412;SDS011;14871;52.702;5.230;2022-08-20T11:22:38;5.72;;;1.30;;
27412;SDS011;14871;52.702;5.230;2022-08-20T11:25:04;5.25;;;1.75;;
27412;SDS011;14871;52.702;5.230;2022-08-20T11:27:32;7.57;;;1.85;;
27412;SDS011;14871;52.702;5.230;2022-08-20T11:30:00;7.13;;;1.85;;
27412;SDS011;14871;52.702;5.230;2022-08-20T11:32:26;7.15;;;1.85;;
27412;SDS011;14871;52.702;5.230;2022-08-20T11:34:52;7.30;;;1.50;;
27412;SDS011;14871;52.702;5.230;2022-08-20T11:37:18;6.88;;;2.03;;
27412;SDS011;14871;52.702;5.230;2022-08-20T11:39:45;7.30;;;1.83;;
27412;SDS011;14871;52.702;5.230;2022-08-20T11:42:11;10.45;;;1.65;;
27412;SDS011;14871;52.702;5.230;2022-08-20T11:44:37;12.95;;;1.80;;
27412;SDS011;14871;52.702;5.230;2022-08-20T11:47:03;5.65;;;1.73;;
27412;SDS011;14871;52.702;5.230;2022-08-20T11:49:30;9.13;;;1.60;;
27412;SDS011;14871;52.702;5.230;2022-08-20T11:52:00;5.28;;;1.70;;
27412;SDS011;14871;52.702;5.230;2022-08-20T11:54:26;4.70;;;1.35;;
27412;SDS011;14871;52.702;5.230;2022-08-20T11:56:56;4.70;;;1.55;;
27412;SDS011;14871;52.702;5.230;2022-08-20T11:59:23;7.88;;;1.50;;
27412;SDS011;14871;52.702;5.230;2022-08-20T12:01:49;8.73;;;1.90;;
27412;SDS011;14871;52.702;5.230;2022-08-20T12:04:17;7.18;;;1.98;;
27412;SDS011;14871;52.702;5.230;2022-08-20T12:06:43;8.00;;;1.80;;
27412;SDS011;14871;52.702;5.230;2022-08-20T12:09:08;8.13;;;2.10;;
27412;SDS011;14871;52.702;5.230;2022-08-20T12:11:34;8.75;;;2.03;;
27412;SDS011;14871;52.702;5.230;2022-08-20T12:13:59;5.80;;;1.60;;
27412;SDS011;14871;52.702;5.230;2022-08-20T12:16:25;4.22;;;1.60;;
27412;SDS011;14871;52.702;5.230;2022-08-20T12:18:50;6.30;;;1.80;;
27412;SDS011;14871;52.702;5.230;2022-08-20T12:21:16;8.48;;;1.98;;
27412;SDS011;14871;52.702;5.230;2022-08-20T12:23:42;8.75;;;2.10;;
27412;SDS011;14871;52.702;5.230;2022-08-20T12:26:08;10.05;;;1.83;;
27412;SDS011;14871;52.702;5.230;2022-08-20T12:28:34;7.28;;;2.10;;
27412;SDS011;14871;52.702;5.230;2022-08-20T12:30:59;8.02;;;1.70;;
27412;SDS011;14871;52.702;5.230;2022-08-20T12:33:25;8.48;;;1.80;;
27412;SDS011;14871;52.702;5.230;2022-08-20T12:35:50;11.02;;;2.10;;
27412;SDS011;14871;52.702;5.230;2022-08-20T12:38:16;10.48;;;2.28;;
27412;SDS011;14871;52.702;5.230;2022-08-20T12:40:42;6.88;;;1.85;;
27412;SDS011;14871;52.702;5.230;2022-08-20T12:43:08;6.68;;;2.10;;
27412;SDS011;14871;52.702;5.230;2022-08-20T12:45:34;7.45;;;2.10;;
27412;SDS011;14871;52.702;5.230;2022-08-20T12:48:02;6.65;;;2.15;;
27412;SDS011;14871;52.702;5.230;2022-08-20T12:50:30;8.32;;;2.17;;
27412;SDS011;14871;52.702;5.230;2022-08-20T12:52:57;6.72;;;2.30;;
27412;SDS011;14871;52.702;5.230;2022-08-20T12:55:22;14.90;;;2.92;;
27412;SDS011;14871;52.702;5.230;2022-08-20T12:57:50;6.85;;;2.25;;
27412;SDS011;14871;52.702;5.230;2022-08-20T13:00:25;9.32;;;2.10;;
27412;SDS011;14871;52.702;5.230;2022-08-20T13:02:51;9.25;;;2.17;;
27412;SDS011;14871;52.702;5.230;2022-08-20T13:05:18;8.88;;;2.28;;
27412;SDS011;14871;52.702;5.230;2022-08-20T13:07:45;8.43;;;2.08;;
27412;SDS011;14871;52.702;5.230;2022-08-20T13:10:16;8.63;;;1.98;;
27412;SDS011;14871;52.702;5.230;2022-08-20T13:12:44;7.40;;;2.13;;
27412;SDS011;14871;52.702;5.230;2022-08-20T13:15:10;9.80;;;2.30;;
27412;SDS011;14871;52.702;5.230;2022-08-20T13:17:36;7.50;;;1.85;;
27412;SDS011;14871;52.702;5.230;2022-08-20T13:20:02;6.15;;;1.88;;
27412;SDS011;14871;52.702;5.230;2022-08-20T13:22:29;10.75;;;2.40;;
27412;SDS011;14871;52.702;5.230;2022-08-20T13:24:55;7.60;;;2.15;;
27412;SDS011;14871;52.702;5.230;2022-08-20T13:27:20;7.00;;;1.88;;
27412;SDS011;14871;52.702;5.230;2022-08-20T13:29:53;7.30;;;2.15;;
27412;SDS011;14871;52.702;5.230;2022-08-20T13:32:20;9.13;;;2.30;;
27412;SDS011;14871;52.702;5.230;2022-08-20T13:34:47;7.80;;;2.28;;
27412;SDS011;14871;52.702;5.230;2022-08-20T13:37:16;8.73;;;2.00;;
27412;SDS011;14871;52.702;5.230;2022-08-20T13:39:43;8.65;;;1.88;;
27412;SDS011;14871;52.702;5.230;2022-08-20T13:42:09;8.70;;;2.08;;
27412;SDS011;14871;52.702;5.230;2022-08-20T13:44:36;6.93;;;2.20;;
27412;SDS011;14871;52.702;5.230;2022-08-20T13:47:12;6.07;;;1.58;;
27412;SDS011;14871;52.702;5.230;2022-08-20T13:49:39;7.88;;;2.38;;
27412;SDS011;14871;52.702;5.230;2022-08-20T13:52:04;8.40;;;2.10;;
27412;SDS011;14871;52.702;5.230;2022-08-20T13:54:30;6.95;;;2.20;;
27412;SDS011;14871;52.702;5.230;2022-08-20T13:57:12;8.73;;;2.13;;
27412;SDS011;14871;52.702;5.230;2022-08-20T13:59:44;8.07;;;2.15;;
27412;SDS011;14871;52.702;5.230;2022-08-20T14:02:12;8.32;;;2.17;;
27412;SDS011;14871;52.702;5.230;2022-08-20T14:04:38;7.22;;;1.90;;
27412;SDS011;14871;52.702;5.230;2022-08-20T14:07:24;7.30;;;2.00;;
27412;SDS011;14871;52.702;5.230;2022-08-20T14:09:53;11.00;;;2.47;;
27412;SDS011;14871;52.702;5.230;2022-08-20T14:12:21;7.85;;;2.15;;
27412;SDS011;14871;52.702;5.230;2022-08-20T14:14:48;7.72;;;2.05;;
27412;SDS011;14871;52.702;5.230;2022-08-20T14:19:40;8.40;;;2.00;;
27412;SDS011;14871;52.702;5.230;2022-08-20T14:22:05;6.47;;;1.80;;
27412;SDS011;14871;52.702;5.230;2022-08-20T14:24:31;10.70;;;2.60;;
27412;SDS011;14871;52.702;5.230;2022-08-20T14:26:57;10.90;;;2.47;;
27412;SDS011;14871;52.702;5.230;2022-08-20T14:29:22;6.55;;;2.22;;
27412;SDS011;14871;52.702;5.230;2022-08-20T14:31:48;10.55;;;2.45;;
27412;SDS011;14871;52.702;5.230;2022-08-20T14:34:14;13.98;;;2.80;;
27412;SDS011;14871;52.702;5.230;2022-08-20T14:36:39;9.57;;;2.50;;
27412;SDS011;14871;52.702;5.230;2022-08-20T14:39:05;8.88;;;2.22;;
27412;SDS011;14871;52.702;5.230;2022-08-20T14:41:31;9.13;;;2.65;;
27412;SDS011;14871;52.702;5.230;2022-08-20T14:43:57;8.82;;;2.63;;
27412;SDS011;14871;52.702;5.230;2022-08-20T14:46:22;8.32;;;2.45;;
27412;SDS011;14871;52.702;5.230;2022-08-20T14:48:48;10.98;;;2.65;;
27412;SDS011;14871;52.702;5.230;2022-08-20T14:51:14;10.18;;;2.67;;
27412;SDS011;14871;52.702;5.230;2022-08-20T14:53:39;10.13;;;2.85;;
27412;SDS011;14871;52.702;5.230;2022-08-20T14:56:05;8.23;;;2.42;;
27412;SDS011;14871;52.702;5.230;2022-08-20T14:58:31;11.82;;;2.35;;